createdAt,value
2022-11-25T00:01:35.081Z,10.97
2022-11-25T00:04:03.552Z,14.17
2022-11-25T00:06:36.066Z,12.33
2022-11-25T00:09:13.212Z,14.13
2022-11-25T00:11:43.913Z,10.60
2022-11-25T00:14:15.577Z,10.70
2022-11-25T00:16:47.945Z,11.23
2022-11-25T00:19:17.260Z,10.00
2022-11-25T00:21:45.422Z,11.20
2022-11-25T00:24:17.153Z,9.37
2022-11-25T00:26:45.665Z,11.17
2022-11-25T00:29:14.548Z,7.07
2022-11-25T00:31:42.956Z,8.33
2022-11-25T00:34:15.360Z,11.30
2022-11-25T00:36:43.544Z,5.97
2022-11-25T00:39:17.377Z,10.30
2022-11-25T00:42:06.778Z,13.10
2022-11-25T00:44:38.466Z,13.37
2022-11-25T00:47:21.864Z,8.90
2022-11-25T00:49:55.833Z,11.80
2022-11-25T00:52:28.617Z,10.03
2022-11-25T00:54:57.682Z,18.77
2022-11-25T00:57:25.652Z,9.10
2022-11-25T00:59:53.925Z,10.93
2022-11-25T01:02:23.434Z,6.80
2022-11-25T01:04:51.151Z,12.80
2022-11-25T01:07:19.435Z,9.93
2022-11-25T01:09:49.327Z,12.07
2022-11-25T01:12:17.494Z,16.60
2022-11-25T01:14:45.086Z,12.53
2022-11-25T01:17:15.004Z,12.03
2022-11-25T01:19:42.548Z,10.10
2022-11-25T01:22:10.757Z,6.63
2022-11-25T01:24:45.533Z,4.87
2022-11-25T01:27:13.357Z,13.90
2022-11-25T01:29:43.102Z,16.90
2022-11-25T01:32:10.692Z,8.83
2022-11-25T01:34:39.529Z,8.93
2022-11-25T01:37:07.181Z,9.57
2022-11-25T01:39:34.733Z,7.00
2022-11-25T01:42:02.970Z,11.50
2022-11-25T01:44:33.420Z,11.07
2022-11-25T01:47:24.524Z,7.80
2022-11-25T01:50:06.059Z,9.67
2022-11-25T01:52:50.589Z,13.93
2022-11-25T01:55:35.062Z,10.00
2022-11-25T01:58:26.278Z,8.27
2022-11-25T02:00:54.906Z,10.20
2022-11-25T02:03:42.076Z,10.37
2022-11-25T02:06:25.728Z,7.93
2022-11-25T02:09:06.835Z,12.37
2022-11-25T02:11:43.197Z,10.43
2022-11-25T02:14:26.158Z,10.00
2022-11-25T02:16:54.344Z,7.87
2022-11-25T02:19:42.999Z,7.53
2022-11-25T02:22:27.134Z,7.80
2022-11-25T02:25:32.799Z,13.40
2022-11-25T02:28:31.126Z,8.27
2022-11-25T02:31:00.170Z,12.97
2022-11-25T02:33:28.708Z,8.80
2022-11-25T02:36:21.351Z,10.83
2022-11-25T02:39:00.764Z,13.87
2022-11-25T02:41:49.974Z,8.20
2022-11-25T02:44:19.195Z,12.57
2022-11-25T02:46:47.605Z,12.10
2022-11-25T02:49:15.346Z,12.43
2022-11-25T02:51:46.684Z,8.30
2022-11-25T02:54:16.606Z,11.07
2022-11-25T02:56:45.938Z,13.50
2022-11-25T02:59:31.935Z,10.70
2022-11-25T03:02:02.279Z,7.90
2022-11-25T03:04:29.977Z,14.03
2022-11-25T03:06:57.523Z,11.43
2022-11-25T03:09:26.018Z,8.83
2022-11-25T03:12:13.198Z,7.70
2022-11-25T03:14:40.836Z,7.93
2022-11-25T03:17:08.378Z,11.00
2022-11-25T03:19:36.176Z,12.20
2022-11-25T03:22:05.084Z,10.67
2022-11-25T03:24:34.350Z,13.30
2022-11-25T03:27:02.211Z,12.17
2022-11-25T03:29:30.494Z,6.47
2022-11-25T03:31:58.883Z,11.63
2022-11-25T03:34:27.554Z,13.57
2022-11-25T03:36:55.376Z,9.60
2022-11-25T03:39:26.209Z,22.93
2022-11-25T03:41:54.003Z,6.20
2022-11-25T03:44:22.171Z,6.97
2022-11-25T03:46:49.774Z,12.37
2022-11-25T03:49:18.878Z,12.70
2022-11-25T03:51:47.059Z,7.40
2022-11-25T03:54:16.175Z,15.00
2022-11-25T03:57:10.712Z,15.20
2022-11-25T03:59:38.638Z,12.87
2022-11-25T04:02:07.128Z,7.50
2022-11-25T04:04:36.139Z,15.53
2022-11-25T04:07:04.099Z,9.80
2022-11-25T04:09:31.800Z,7.90
2022-11-25T04:12:19.662Z,10.83
2022-11-25T04:14:55.349Z,9.40
2022-11-25T04:17:23.985Z,12.23
2022-11-25T04:19:52.449Z,11.50
2022-11-25T04:22:20.118Z,13.87
2022-11-25T04:24:49.229Z,17.93
2022-11-25T04:27:22.407Z,16.60
2022-11-25T04:29:50.428Z,10.43
2022-11-25T04:32:20.434Z,13.47
2022-11-25T04:34:48.075Z,13.97
2022-11-25T04:37:16.557Z,12.10
2022-11-25T04:40:05.307Z,14.97
2022-11-25T04:42:38.047Z,9.90
2022-11-25T04:45:23.452Z,16.43
2022-11-25T04:47:53.464Z,16.00
2022-11-25T04:50:24.723Z,14.00
2022-11-25T04:53:06.032Z,14.70
2022-11-25T04:55:33.651Z,13.03
2022-11-25T04:58:06.613Z,10.73
2022-11-25T05:00:35.982Z,13.13
2022-11-25T05:03:06.946Z,9.97
2022-11-25T05:05:39.486Z,16.30
2022-11-25T05:08:07.443Z,14.50
2022-11-25T05:10:35.360Z,12.70
2022-11-25T05:13:03.837Z,13.70
2022-11-25T05:15:31.751Z,12.00
2022-11-25T05:18:00.124Z,9.77
2022-11-25T05:20:45.031Z,8.83
2022-11-25T05:23:14.631Z,8.20
2022-11-25T05:25:43.398Z,8.10
2022-11-25T05:28:32.609Z,15.43
2022-11-25T05:31:00.690Z,11.03
2022-11-25T05:33:28.680Z,18.83
2022-11-25T05:36:04.093Z,11.13
2022-11-25T05:38:38.147Z,16.97
2022-11-25T05:41:11.248Z,10.73
2022-11-25T05:43:41.302Z,17.07
2022-11-25T05:46:10.083Z,14.10
2022-11-25T05:48:44.173Z,14.90
2022-11-25T05:51:12.223Z,12.67
2022-11-25T05:53:40.864Z,13.30
2022-11-25T05:56:11.040Z,11.37
2022-11-25T05:59:01.872Z,9.70
2022-11-25T06:01:42.801Z,15.50
2022-11-25T06:04:11.795Z,13.90
2022-11-25T06:06:39.926Z,11.30
2022-11-25T06:09:08.572Z,12.00
2022-11-25T06:11:36.849Z,10.40
2022-11-25T06:14:04.526Z,14.97
2022-11-25T06:16:32.393Z,11.73
2022-11-25T06:19:15.327Z,14.73
2022-11-25T06:21:43.925Z,14.93
2022-11-25T06:24:11.534Z,14.97
2022-11-25T06:26:39.563Z,16.47
2022-11-25T06:29:07.395Z,13.93
2022-11-25T06:31:35.253Z,16.23
2022-11-25T06:34:21.225Z,15.80
2022-11-25T06:36:51.415Z,17.20
2022-11-25T06:39:19.186Z,13.03
2022-11-25T06:41:47.349Z,15.53
2022-11-25T06:44:15.531Z,11.23
2022-11-25T06:46:43.120Z,24.20
2022-11-25T06:49:10.812Z,11.87
2022-11-25T06:51:38.490Z,10.83
2022-11-25T06:54:07.301Z,14.90
2022-11-25T06:56:35.099Z,22.47
2022-11-25T06:59:04.089Z,14.17
2022-11-25T07:01:32.217Z,15.80
2022-11-25T07:04:06.049Z,11.90
2022-11-25T07:06:34.293Z,15.17
2022-11-25T07:09:03.429Z,11.33
2022-11-25T07:11:37.943Z,14.80
2022-11-25T07:14:14.542Z,22.37
2022-11-25T07:16:46.152Z,27.67
2022-11-25T07:19:18.388Z,10.60
2022-11-25T07:21:47.892Z,16.57
2022-11-25T07:24:24.499Z,11.50
2022-11-25T07:26:53.734Z,17.40
2022-11-25T07:29:51.562Z,11.00
2022-11-25T07:32:10.885Z,11.77
2022-11-25T07:34:39.168Z,12.50
2022-11-25T07:37:07.011Z,15.83
2022-11-25T07:39:35.206Z,19.00
2022-11-25T07:42:03.181Z,16.47
2022-11-25T07:44:31.366Z,12.63
2022-11-25T07:47:13.662Z,13.27
2022-11-25T07:49:41.655Z,12.63
2022-11-25T07:52:10.308Z,22.27
2022-11-25T07:54:39.727Z,22.60
2022-11-25T07:57:08.984Z,14.23
2022-11-25T07:59:41.719Z,14.13
2022-11-25T08:02:18.291Z,20.03
2022-11-25T08:04:46.216Z,16.27
2022-11-25T08:07:13.801Z,14.70
2022-11-25T08:09:41.445Z,15.80
2022-11-25T08:12:09.225Z,21.47
2022-11-25T08:14:37.366Z,14.70
2022-11-25T08:17:06.144Z,13.30
2022-11-25T08:19:34.057Z,15.63
2022-11-25T08:22:01.668Z,10.00
2022-11-25T08:24:29.251Z,8.70
2022-11-25T08:26:58.793Z,15.27
2022-11-25T08:29:26.329Z,19.50
2022-11-25T08:31:54.522Z,14.00
2022-11-25T08:34:25.437Z,17.83
2022-11-25T08:37:02.872Z,12.10
2022-11-25T08:42:18.761Z,9.77
2022-11-25T08:44:46.268Z,19.57
2022-11-25T08:47:13.903Z,9.87
2022-11-25T08:49:42.139Z,13.07
2022-11-25T08:52:11.365Z,13.60
2022-11-25T08:54:39.291Z,9.60
2022-11-25T08:57:07.279Z,9.40
2022-11-25T08:59:35.812Z,10.13
2022-11-25T09:02:04.277Z,10.43
2022-11-25T09:04:32.495Z,17.67
2022-11-25T09:07:01.861Z,13.63
2022-11-25T09:09:29.504Z,9.53
2022-11-25T09:11:57.191Z,17.83
2022-11-25T09:14:24.838Z,10.57
2022-11-25T09:16:52.564Z,9.13
2022-11-25T09:19:21.067Z,17.17
2022-11-25T09:21:48.813Z,8.20
2022-11-25T09:24:16.470Z,14.13
2022-11-25T09:26:45.189Z,11.73
2022-11-25T09:29:14.439Z,8.37
2022-11-25T09:31:42.131Z,12.13
2022-11-25T09:34:10.084Z,14.10
2022-11-25T09:36:38.039Z,10.00
2022-11-25T09:39:06.294Z,17.30
2022-11-25T09:42:33.071Z,10.97
2022-11-25T09:45:50.512Z,12.83
2022-11-25T09:48:58.797Z,13.53
2022-11-25T09:52:40.237Z,15.77
2022-11-25T09:55:24.211Z,8.50
2022-11-25T09:58:40.894Z,15.50
2022-11-25T10:01:23.887Z,11.50
2022-11-25T10:04:07.015Z,11.80
2022-11-25T10:06:57.069Z,13.37
2022-11-25T10:09:36.077Z,13.90
2022-11-25T10:12:40.869Z,11.50
2022-11-25T10:15:30.263Z,6.63
2022-11-25T10:18:40.839Z,18.83
2022-11-25T10:21:11.987Z,8.50
2022-11-25T10:23:41.102Z,13.67
2022-11-25T10:26:21.672Z,9.00
2022-11-25T10:29:28.440Z,12.20
2022-11-25T10:32:30.933Z,8.83
2022-11-25T10:35:20.408Z,11.20
2022-11-25T10:37:55.237Z,10.87
2022-11-25T10:40:23.294Z,10.50
2022-11-25T10:42:50.947Z,13.73
2022-11-25T10:45:32.146Z,11.90
2022-11-25T10:48:44.340Z,9.40
2022-11-25T10:51:48.550Z,12.50
2022-11-25T10:54:29.353Z,12.63
2022-11-25T10:57:18.881Z,15.63
2022-11-25T11:00:00.816Z,11.90
2022-11-25T11:02:41.820Z,10.83
2022-11-25T11:05:09.431Z,13.77
2022-11-25T11:07:46.862Z,10.80
2022-11-25T11:10:27.112Z,15.10
2022-11-25T11:13:18.021Z,14.80
2022-11-25T11:15:48.344Z,11.43
2022-11-25T11:18:41.124Z,10.50
2022-11-25T11:21:37.959Z,10.83
2022-11-25T11:24:29.833Z,8.13
2022-11-25T11:27:25.497Z,12.27
2022-11-25T11:30:27.126Z,9.87
2022-11-25T11:33:36.478Z,15.60
2022-11-25T11:36:23.974Z,10.50
2022-11-25T11:39:23.419Z,10.33
2022-11-25T11:42:32.833Z,15.03
2022-11-25T11:45:48.390Z,10.30
2022-11-25T11:49:13.394Z,12.43
2022-11-25T11:52:05.917Z,13.37
2022-11-25T11:55:14.968Z,10.47
2022-11-25T11:58:18.933Z,10.17
2022-11-25T12:01:11.233Z,13.87
2022-11-25T12:04:37.184Z,10.93
2022-11-25T12:07:43.435Z,19.00
2022-11-25T12:10:40.083Z,11.00
2022-11-25T12:14:00.698Z,10.70
2022-11-25T12:16:55.615Z,12.90
2022-11-25T12:19:57.008Z,11.50
2022-11-25T12:22:53.902Z,10.53
2022-11-25T12:25:39.310Z,9.07
2022-11-25T12:29:06.021Z,11.23
2022-11-25T12:31:52.412Z,18.70
2022-11-25T12:34:44.577Z,9.70
2022-11-25T12:37:38.647Z,12.20
2022-11-25T12:40:39.963Z,8.00
2022-11-25T12:43:43.608Z,11.17
2022-11-25T12:46:44.403Z,11.23
2022-11-25T12:49:42.069Z,11.43
2022-11-25T12:52:54.264Z,10.53
2022-11-25T12:55:28.952Z,13.03
2022-11-25T12:58:52.907Z,13.53
2022-11-25T13:02:45.611Z,8.00
2022-11-25T13:05:49.899Z,8.93
2022-11-25T13:08:56.360Z,12.50
2022-11-25T13:12:00.847Z,9.73
2022-11-25T13:15:33.609Z,6.63
2022-11-25T13:18:26.804Z,14.93
2022-11-25T13:21:08.395Z,6.30
2022-11-25T13:23:54.244Z,11.63
2022-11-25T13:26:34.267Z,7.33
2022-11-25T13:29:09.978Z,15.33
2022-11-25T13:32:25.846Z,9.73
2022-11-25T13:35:22.425Z,8.73
2022-11-25T13:37:51.260Z,12.17
2022-11-25T13:40:30.034Z,11.13
2022-11-25T13:43:00.569Z,11.43
2022-11-25T13:45:45.218Z,18.70
2022-11-25T13:48:35.035Z,11.30
2022-11-25T13:51:27.096Z,9.73
2022-11-25T13:54:03.010Z,11.27
2022-11-25T13:56:38.234Z,12.97
2022-11-25T13:59:35.712Z,12.23
2022-11-25T14:02:28.309Z,10.47
2022-11-25T14:05:34.567Z,13.20
2022-11-25T14:08:57.478Z,8.10
2022-11-25T14:12:23.382Z,8.70
2022-11-25T14:15:44.486Z,11.53
2022-11-25T14:23:29.594Z,10.77
2022-11-25T14:26:34.143Z,8.07
2022-11-25T14:29:36.835Z,7.57
2022-11-25T14:32:23.242Z,11.27
2022-11-25T14:35:14.954Z,8.80
2022-11-25T14:38:51.548Z,10.80
2022-11-25T14:41:47.157Z,13.03
2022-11-25T14:44:32.404Z,9.77
2022-11-25T14:47:05.951Z,9.83
2022-11-25T14:52:47.934Z,12.33
2022-11-25T14:55:32.032Z,8.83
2022-11-25T14:58:00.011Z,9.90
2022-11-25T15:00:27.741Z,12.67
2022-11-25T15:03:08.634Z,10.57
2022-11-25T15:05:41.096Z,14.17
2022-11-25T15:08:15.608Z,9.83
2022-11-25T15:11:04.831Z,13.53
2022-11-25T15:13:45.630Z,15.53
2022-11-25T15:16:21.834Z,10.63
2022-11-25T15:19:00.917Z,12.00
2022-11-25T15:21:53.771Z,12.77
2022-11-25T15:27:33.843Z,14.10
2022-11-25T15:30:01.598Z,10.07
2022-11-25T15:32:37.600Z,11.67
2022-11-25T15:35:08.954Z,12.43
2022-11-25T15:37:38.492Z,12.87
2022-11-25T15:40:43.259Z,9.17
2022-11-25T15:43:30.677Z,8.20
2022-11-25T15:46:05.933Z,11.03
2022-11-25T15:48:47.223Z,6.20
2022-11-25T15:51:43.990Z,10.07
2022-11-25T15:54:40.446Z,8.07
2022-11-25T15:57:34.949Z,11.97
2022-11-25T16:00:20.733Z,13.20
2022-11-25T16:02:55.397Z,11.77
2022-11-25T16:05:35.175Z,7.20
2022-11-25T16:08:24.853Z,9.33
2022-11-25T16:11:00.536Z,11.40
2022-11-25T16:13:33.551Z,8.33
2022-11-25T16:16:31.553Z,12.50
2022-11-25T16:19:16.807Z,10.07
2022-11-25T16:22:03.817Z,9.50
2022-11-25T16:24:47.576Z,6.40
2022-11-25T16:27:24.113Z,12.60
2022-11-25T16:30:05.851Z,7.50
2022-11-25T16:32:34.646Z,14.13
2022-11-25T16:35:23.848Z,11.33
2022-11-25T16:37:51.473Z,13.47
2022-11-25T16:40:19.871Z,11.50
2022-11-25T16:42:50.849Z,12.63
2022-11-25T16:45:28.784Z,9.77
2022-11-25T16:47:56.823Z,9.97
2022-11-25T16:50:24.885Z,8.67
2022-11-25T16:52:52.472Z,10.87
2022-11-25T16:55:27.752Z,7.70
2022-11-25T16:57:55.523Z,9.90
2022-11-25T17:00:23.399Z,10.93
2022-11-25T17:02:51.668Z,11.90
2022-11-25T17:05:25.579Z,9.33
2022-11-25T17:07:54.455Z,12.00
2022-11-25T17:10:22.875Z,10.37
2022-11-25T17:12:51.180Z,13.23
2022-11-25T17:15:36.807Z,11.30
2022-11-25T17:18:08.476Z,20.47
2022-11-25T17:20:36.096Z,8.47
2022-11-25T17:23:03.746Z,15.30
2022-11-25T17:25:37.076Z,12.00
2022-11-25T17:28:06.065Z,8.93
2022-11-25T17:30:33.879Z,7.90
2022-11-25T17:33:18.320Z,13.73
2022-11-25T17:35:46.787Z,10.70
2022-11-25T17:38:21.453Z,13.40
2022-11-25T17:40:50.695Z,14.83
2022-11-25T17:43:21.242Z,14.73
2022-11-25T17:45:48.936Z,13.17
2022-11-25T17:48:18.782Z,14.63
2022-11-25T17:50:47.516Z,11.27
2022-11-25T17:53:15.615Z,20.60
2022-11-25T17:55:43.255Z,15.03
2022-11-25T17:58:19.213Z,9.90
2022-11-25T18:00:46.879Z,11.30
2022-11-25T18:03:17.299Z,9.23
2022-11-25T18:05:46.158Z,12.60
2022-11-25T18:08:13.721Z,19.03
2022-11-25T18:10:41.492Z,14.47
2022-11-25T18:13:10.932Z,14.60
2022-11-25T18:15:40.279Z,10.23
2022-11-25T18:18:24.324Z,17.03
2022-11-25T18:20:56.219Z,13.97
2022-11-25T18:23:24.872Z,15.37
2022-11-25T18:25:56.502Z,23.43
2022-11-25T18:28:32.795Z,13.07
2022-11-25T18:31:06.382Z,18.63
2022-11-25T18:33:34.900Z,19.33
2022-11-25T18:36:02.622Z,13.60
2022-11-25T18:38:30.360Z,12.90
2022-11-25T18:40:58.107Z,16.30
2022-11-25T18:43:28.119Z,9.57
2022-11-25T18:45:57.436Z,16.43
2022-11-25T18:48:27.466Z,11.90
2022-11-25T18:50:57.507Z,14.67
2022-11-25T18:53:25.752Z,9.00
2022-11-25T18:55:53.913Z,14.00
2022-11-25T18:58:27.667Z,12.60
2022-11-25T19:01:11.245Z,10.57
2022-11-25T19:03:39.247Z,8.37
2022-11-25T19:06:14.688Z,12.30
2022-11-25T19:08:43.212Z,21.40
2022-11-25T19:11:23.268Z,18.43
2022-11-25T19:13:53.422Z,11.43
2022-11-25T19:16:29.959Z,14.37
2022-11-25T19:18:57.734Z,10.27
2022-11-25T19:21:25.324Z,14.90
2022-11-25T19:23:53.472Z,13.10
2022-11-25T19:26:38.953Z,15.40
2022-11-25T19:29:20.123Z,16.07
2022-11-25T19:31:54.451Z,14.13
2022-11-25T19:34:33.992Z,15.77
2022-11-25T19:37:02.265Z,14.77
2022-11-25T19:39:36.525Z,19.60
2022-11-25T19:42:04.502Z,12.93
2022-11-25T19:44:32.081Z,9.97
2022-11-25T19:47:14.902Z,18.43
2022-11-25T19:49:44.355Z,18.43
2022-11-25T19:52:35.812Z,15.07
2022-11-25T19:55:22.105Z,14.77
2022-11-25T19:57:53.095Z,13.50
2022-11-25T20:00:23.719Z,22.43
2022-11-25T20:02:56.371Z,18.53
2022-11-25T20:05:37.779Z,18.63
2022-11-25T20:08:05.984Z,18.20
2022-11-25T20:10:33.596Z,11.23
2022-11-25T20:13:01.191Z,17.87
2022-11-25T20:15:28.900Z,14.97
2022-11-25T20:18:01.458Z,23.63
2022-11-25T20:20:38.091Z,17.53
2022-11-25T20:23:43.606Z,23.83
2022-11-25T20:26:40.292Z,12.47
2022-11-25T20:29:28.851Z,18.13
2022-11-25T20:31:58.509Z,16.00
2022-11-25T20:34:28.376Z,20.17
2022-11-25T20:36:56.159Z,13.13
2022-11-25T20:39:23.812Z,11.40
2022-11-25T20:41:53.810Z,18.53
2022-11-25T20:44:22.203Z,23.30
2022-11-25T20:46:50.035Z,19.80
2022-11-25T20:49:29.532Z,21.20
2022-11-25T20:51:58.017Z,18.30
2022-11-25T20:54:25.813Z,22.20
2022-11-25T20:56:56.515Z,19.37
2022-11-25T20:59:26.977Z,22.87
2022-11-25T21:01:55.262Z,21.87
2022-11-25T21:04:23.465Z,21.93
2022-11-25T21:06:51.497Z,23.87
2022-11-25T21:09:35.989Z,22.20
2022-11-25T21:12:05.337Z,21.43
2022-11-25T21:14:33.294Z,17.60
2022-11-25T21:17:03.865Z,29.20
2022-11-25T21:19:40.648Z,22.07
2022-11-25T21:22:15.302Z,19.60
2022-11-25T21:24:48.905Z,23.43
2022-11-25T21:27:21.302Z,28.13
2022-11-25T21:29:51.079Z,24.27
2022-11-25T21:32:28.229Z,21.40
2022-11-25T21:34:58.011Z,24.00
2022-11-25T21:37:44.981Z,25.47
2022-11-25T21:40:49.706Z,22.60
2022-11-25T21:43:35.467Z,18.73
2022-11-25T21:46:22.808Z,27.23
2022-11-25T21:48:53.880Z,20.27
2022-11-25T21:51:24.481Z,29.47
2022-11-25T21:53:56.374Z,30.43
2022-11-25T21:56:36.262Z,17.80
2022-11-25T21:59:12.276Z,20.37
2022-11-25T22:01:40.038Z,20.37
2022-11-25T22:04:19.652Z,27.97
2022-11-25T22:06:48.708Z,25.90
2022-11-25T22:09:16.952Z,23.90
2022-11-25T22:11:50.760Z,22.77
2022-11-25T22:14:37.169Z,21.03
2022-11-25T22:17:17.179Z,23.67
2022-11-25T22:19:45.630Z,16.90
2022-11-25T22:22:16.686Z,17.33
2022-11-25T22:24:45.223Z,17.30
2022-11-25T22:27:36.518Z,16.80
2022-11-25T22:30:06.696Z,24.20
2022-11-25T22:32:34.453Z,31.17
2022-11-25T22:35:01.960Z,26.83
2022-11-25T22:37:31.816Z,30.13
2022-11-25T22:39:59.649Z,24.13
2022-11-25T22:42:32.603Z,16.90
2022-11-25T22:45:07.805Z,31.40
2022-11-25T22:47:45.329Z,18.97
2022-11-25T22:50:28.955Z,27.80
2022-11-25T22:52:59.384Z,24.83
2022-11-25T22:55:36.087Z,24.90
2022-11-25T22:58:04.843Z,23.60
2022-11-25T23:00:40.936Z,27.23
2022-11-25T23:03:34.315Z,25.47
2022-11-25T23:06:10.451Z,24.30
2022-11-25T23:08:40.450Z,28.30
2022-11-25T23:11:20.277Z,24.17
2022-11-25T23:13:50.624Z,26.30
2022-11-25T23:16:18.725Z,29.00
2022-11-25T23:18:47.717Z,26.90
2022-11-25T23:21:27.946Z,34.53
2022-11-25T23:23:56.819Z,33.37
2022-11-25T23:26:28.777Z,32.63
2022-11-25T23:28:59.893Z,28.93
2022-11-25T23:31:27.464Z,27.07
2022-11-25T23:33:55.207Z,30.27
2022-11-25T23:36:49.577Z,33.80
2022-11-25T23:39:26.586Z,22.70
2022-11-25T23:41:55.141Z,27.73
2022-11-25T23:44:31.923Z,27.23
2022-11-25T23:47:07.797Z,33.03
2022-11-25T23:49:45.761Z,31.30
2022-11-25T23:52:28.078Z,28.40
2022-11-25T23:54:56.429Z,32.47
2022-11-25T23:57:47.525Z,39.10
